Point Lay, AK

3:12 AM AKST on February 19, 2018 (GMT -0900)
Point Lay | | Change Station

Elev 23 ft 69.73 °N, 163.01 °W | Updated 3 minutes ago

Mostly Cloudy
Mostly Cloudy
28 °F
Feels Like 14 °F
N
25
Wind Variable Wind from South

Today
High -- | Low -- °F
--% Chance of Precip.
Yesterday
High -- | Low -- °F
Precip. -- in
Pressure 30.08 in
Visibility 3.0 miles
Clouds Mostly Cloudy 1800 ft
Windchill 14 °F
Dew Point 27 °F
Humidity 93%
Rainfall 0.00 in
Snow Depth Not available.
10:02 AM 6:10 PM
Waxing Crescent, 13% visible
SPECI PPIZ 191209Z AUTO 19022KT 3SM -SN BR BKN018 M02/M03 A3008 RMK AO2 PK WND 19027/1207 P0000 FZRANO TSNO
Pressure 30.08 in
Visibility 3.0 miles
Clouds Mostly Cloudy 1800 ft
Windchill 14 °F
Dew Point 27 °F
Humidity 93%
Rainfall 0.00 in
Snow Depth Not available.
10:02 AM 6:10 PM
Waxing Crescent, 13% visible
SPECI PPIZ 191209Z AUTO 19022KT 3SM -SN BR BKN018 M02/M03 A3008 RMK AO2 PK WND 19027/1207 P0000 FZRANO TSNO

Get Severe Weather Alerts

Thanks for signing up!

Be on the lookout for a verification email in your inbox.

You'll start receiving the daily forecast at 6 AM.

×

10-Day Weather Forecast

Almanac

Astronomy

Feb. 19, 2018 Rise Set
Actual Time
Civil Twilight
Nautical Twilight
Astronomical Twilight
Moon
Length of Visible Light
Length of Day
Tomorrow will be .
, % of the Moon is Illuminated

Today's Extremes

State Highs State Lows

Community

WunderPhotos

Category 6

Welcome to Category 6. This is the collective home for Weather Underground's featured writeups by Dr. Jeff Masters (right), Bob Henson (left), Chris Burt, and other regular contributors.

Nearby

Air Quality

  Air Quality AQ Index Pollutant
Not available.

Snow Depth

Station Depth Elevation

Earthquake Activity

City Distance Mag. Time & Date
Minimum magnitude displayed is 2.5.

Coastal Water Temperatures

Place Temperature

Stations

Nearby Weather Stations

Station Location Temp. Windchill Dew Point Humidity Wind Precip. Elev Updated Type
                   

Watches & Warnings

There are currently no watches in effect.